sensor_id;sensor_type;location;lat;lon;timestamp;P1;durP1;ratioP1;P2;durP2;ratioP2
16634;SDS011;8431;52.458;9.998;2022-08-07T00:01:39;5.20;;;4.70;;
16634;SDS011;8431;52.458;9.998;2022-08-07T00:04:06;5.43;;;4.85;;
16634;SDS011;8431;52.458;9.998;2022-08-07T00:06:33;5.32;;;4.53;;
16634;SDS011;8431;52.458;9.998;2022-08-07T00:09:01;5.82;;;5.32;;
16634;SDS011;8431;52.458;9.998;2022-08-07T00:11:29;4.78;;;4.38;;
16634;SDS011;8431;52.458;9.998;2022-08-07T00:13:56;5.10;;;4.70;;
16634;SDS011;8431;52.458;9.998;2022-08-07T00:16:25;5.50;;;5.10;;
16634;SDS011;8431;52.458;9.998;2022-08-07T00:18:52;6.10;;;4.50;;
16634;SDS011;8431;52.458;9.998;2022-08-07T00:21:19;4.82;;;4.43;;
16634;SDS011;8431;52.458;9.998;2022-08-07T00:23:46;4.85;;;4.45;;
16634;SDS011;8431;52.458;9.998;2022-08-07T00:26:13;5.13;;;4.70;;
16634;SDS011;8431;52.458;9.998;2022-08-07T00:28:40;4.78;;;4.47;;
16634;SDS011;8431;52.458;9.998;2022-08-07T00:31:09;5.53;;;4.35;;
16634;SDS011;8431;52.458;9.998;2022-08-07T00:33:38;5.65;;;5.00;;
16634;SDS011;8431;52.458;9.998;2022-08-07T00:36:06;6.40;;;5.35;;
16634;SDS011;8431;52.458;9.998;2022-08-07T00:38:33;5.65;;;5.18;;
16634;SDS011;8431;52.458;9.998;2022-08-07T00:41:02;5.88;;;5.28;;
16634;SDS011;8431;52.458;9.998;2022-08-07T00:43:30;5.90;;;4.88;;
16634;SDS011;8431;52.458;9.998;2022-08-07T00:45:58;6.50;;;4.93;;
16634;SDS011;8431;52.458;9.998;2022-08-07T00:48:26;5.95;;;5.30;;
16634;SDS011;8431;52.458;9.998;2022-08-07T00:50:54;6.10;;;5.57;;
16634;SDS011;8431;52.458;9.998;2022-08-07T00:53:21;5.88;;;5.38;;
16634;SDS011;8431;52.458;9.998;2022-08-07T00:55:49;6.15;;;5.55;;
16634;SDS011;8431;52.458;9.998;2022-08-07T00:58:17;9.95;;;5.32;;
16634;SDS011;8431;52.458;9.998;2022-08-07T01:00:46;6.07;;;5.47;;
16634;SDS011;8431;52.458;9.998;2022-08-07T01:03:14;6.20;;;5.60;;
16634;SDS011;8431;52.458;9.998;2022-08-07T01:05:42;6.10;;;5.50;;
16634;SDS011;8431;52.458;9.998;2022-08-07T01:08:12;5.63;;;5.13;;
16634;SDS011;8431;52.458;9.998;2022-08-07T01:10:40;6.13;;;5.53;;
16634;SDS011;8431;52.458;9.998;2022-08-07T01:13:08;6.40;;;5.80;;
16634;SDS011;8431;52.458;9.998;2022-08-07T01:15:35;6.25;;;5.65;;
16634;SDS011;8431;52.458;9.998;2022-08-07T01:18:03;5.65;;;5.15;;
16634;SDS011;8431;52.458;9.998;2022-08-07T01:20:32;6.10;;;5.55;;
16634;SDS011;8431;52.458;9.998;2022-08-07T01:23:04;6.15;;;5.55;;
16634;SDS011;8431;52.458;9.998;2022-08-07T01:25:31;9.00;;;5.90;;
16634;SDS011;8431;52.458;9.998;2022-08-07T01:28:00;6.20;;;5.60;;
16634;SDS011;8431;52.458;9.998;2022-08-07T01:30:27;6.70;;;6.03;;
16634;SDS011;8431;52.458;9.998;2022-08-07T01:32:56;6.80;;;6.20;;
16634;SDS011;8431;52.458;9.998;2022-08-07T01:35:24;6.68;;;5.82;;
16634;SDS011;8431;52.458;9.998;2022-08-07T01:37:51;6.13;;;5.50;;
16634;SDS011;8431;52.458;9.998;2022-08-07T01:40:20;6.03;;;5.50;;
16634;SDS011;8431;52.458;9.998;2022-08-07T01:42:48;6.72;;;6.07;;
16634;SDS011;8431;52.458;9.998;2022-08-07T01:45:15;5.97;;;5.47;;
16634;SDS011;8431;52.458;9.998;2022-08-07T01:47:45;5.95;;;5.40;;
16634;SDS011;8431;52.458;9.998;2022-08-07T01:50:14;6.40;;;5.80;;
16634;SDS011;8431;52.458;9.998;2022-08-07T01:52:41;6.70;;;6.05;;
16634;SDS011;8431;52.458;9.998;2022-08-07T01:55:10;5.88;;;5.38;;
16634;SDS011;8431;52.458;9.998;2022-08-07T01:57:40;6.75;;;6.15;;
16634;SDS011;8431;52.458;9.998;2022-08-07T02:00:08;8.82;;;6.13;;
16634;SDS011;8431;52.458;9.998;2022-08-07T02:02:39;6.95;;;6.25;;
16634;SDS011;8431;52.458;9.998;2022-08-07T02:05:11;7.10;;;6.07;;
16634;SDS011;8431;52.458;9.998;2022-08-07T02:07:45;6.40;;;5.80;;
16634;SDS011;8431;52.458;9.998;2022-08-07T02:10:16;6.88;;;5.68;;
16634;SDS011;8431;52.458;9.998;2022-08-07T02:12:48;6.50;;;5.95;;
16634;SDS011;8431;52.458;9.998;2022-08-07T02:15:17;7.88;;;6.15;;
16634;SDS011;8431;52.458;9.998;2022-08-07T02:17:47;6.63;;;6.03;;
16634;SDS011;8431;52.458;9.998;2022-08-07T02:20:16;6.13;;;5.57;;
16634;SDS011;8431;52.458;9.998;2022-08-07T02:22:44;7.50;;;6.05;;
16634;SDS011;8431;52.458;9.998;2022-08-07T02:25:12;6.32;;;5.82;;
16634;SDS011;8431;52.458;9.998;2022-08-07T02:27:41;6.55;;;5.90;;
16634;SDS011;8431;52.458;9.998;2022-08-07T02:30:12;6.30;;;5.65;;
16634;SDS011;8431;52.458;9.998;2022-08-07T02:32:39;8.32;;;6.82;;
16634;SDS011;8431;52.458;9.998;2022-08-07T02:35:08;6.65;;;6.10;;
16634;SDS011;8431;52.458;9.998;2022-08-07T02:37:38;7.45;;;6.40;;
16634;SDS011;8431;52.458;9.998;2022-08-07T02:40:06;6.70;;;6.00;;
16634;SDS011;8431;52.458;9.998;2022-08-07T02:42:35;9.98;;;6.13;;
16634;SDS011;8431;52.458;9.998;2022-08-07T02:45:03;7.05;;;6.35;;
16634;SDS011;8431;52.458;9.998;2022-08-07T02:47:34;7.43;;;6.65;;
16634;SDS011;8431;52.458;9.998;2022-08-07T02:50:02;6.68;;;6.03;;
16634;SDS011;8431;52.458;9.998;2022-08-07T02:52:31;7.90;;;5.97;;
16634;SDS011;8431;52.458;9.998;2022-08-07T02:55:03;8.43;;;6.35;;
16634;SDS011;8431;52.458;9.998;2022-08-07T02:57:33;6.55;;;5.95;;
16634;SDS011;8431;52.458;9.998;2022-08-07T03:00:03;6.38;;;5.80;;
16634;SDS011;8431;52.458;9.998;2022-08-07T03:02:33;6.00;;;5.40;;
16634;SDS011;8431;52.458;9.998;2022-08-07T03:05:08;6.13;;;5.53;;
16634;SDS011;8431;52.458;9.998;2022-08-07T03:07:36;7.88;;;5.47;;
16634;SDS011;8431;52.458;9.998;2022-08-07T03:10:04;6.10;;;5.50;;
16634;SDS011;8431;52.458;9.998;2022-08-07T03:12:32;6.40;;;5.72;;
16634;SDS011;8431;52.458;9.998;2022-08-07T03:15:00;7.32;;;6.63;;
16634;SDS011;8431;52.458;9.998;2022-08-07T03:17:27;6.32;;;5.72;;
16634;SDS011;8431;52.458;9.998;2022-08-07T03:19:56;6.70;;;5.75;;
16634;SDS011;8431;52.458;9.998;2022-08-07T03:22:23;5.90;;;5.40;;
16634;SDS011;8431;52.458;9.998;2022-08-07T03:24:51;6.50;;;5.90;;
16634;SDS011;8431;52.458;9.998;2022-08-07T03:27:18;7.13;;;6.40;;
16634;SDS011;8431;52.458;9.998;2022-08-07T03:29:47;8.15;;;5.93;;
16634;SDS011;8431;52.458;9.998;2022-08-07T03:32:16;6.50;;;5.90;;
16634;SDS011;8431;52.458;9.998;2022-08-07T03:34:48;7.68;;;6.32;;
16634;SDS011;8431;52.458;9.998;2022-08-07T03:37:18;7.30;;;5.97;;
16634;SDS011;8431;52.458;9.998;2022-08-07T03:39:46;7.07;;;6.25;;
16634;SDS011;8431;52.458;9.998;2022-08-07T03:42:14;5.57;;;5.07;;
16634;SDS011;8431;52.458;9.998;2022-08-07T03:44:42;8.35;;;6.15;;
16634;SDS011;8431;52.458;9.998;2022-08-07T03:47:10;7.68;;;6.18;;
16634;SDS011;8431;52.458;9.998;2022-08-07T03:49:37;6.88;;;6.28;;
16634;SDS011;8431;52.458;9.998;2022-08-07T03:52:05;6.07;;;5.47;;
16634;SDS011;8431;52.458;9.998;2022-08-07T03:54:35;6.20;;;5.60;;
16634;SDS011;8431;52.458;9.998;2022-08-07T03:57:02;6.00;;;5.50;;
16634;SDS011;8431;52.458;9.998;2022-08-07T03:59:30;5.88;;;5.28;;
16634;SDS011;8431;52.458;9.998;2022-08-07T04:01:58;6.47;;;5.65;;
16634;SDS011;8431;52.458;9.998;2022-08-07T04:04:25;6.07;;;5.47;;
16634;SDS011;8431;52.458;9.998;2022-08-07T04:06:52;5.88;;;5.30;;
16634;SDS011;8431;52.458;9.998;2022-08-07T04:09:19;6.03;;;5.43;;
16634;SDS011;8431;52.458;9.998;2022-08-07T04:11:49;6.63;;;6.03;;
16634;SDS011;8431;52.458;9.998;2022-08-07T04:14:17;6.72;;;6.07;;
16634;SDS011;8431;52.458;9.998;2022-08-07T04:16:44;5.85;;;5.35;;
16634;SDS011;8431;52.458;9.998;2022-08-07T04:19:13;6.60;;;6.00;;
16634;SDS011;8431;52.458;9.998;2022-08-07T04:21:41;6.28;;;5.70;;
16634;SDS011;8431;52.458;9.998;2022-08-07T04:24:08;7.57;;;6.00;;
16634;SDS011;8431;52.458;9.998;2022-08-07T04:26:37;5.82;;;5.05;;
16634;SDS011;8431;52.458;9.998;2022-08-07T04:29:06;6.53;;;5.82;;
16634;SDS011;8431;52.458;9.998;2022-08-07T04:31:35;7.55;;;6.85;;
16634;SDS011;8431;52.458;9.998;2022-08-07T04:34:03;7.50;;;6.68;;
16634;SDS011;8431;52.458;9.998;2022-08-07T04:36:31;7.07;;;6.43;;
16634;SDS011;8431;52.458;9.998;2022-08-07T04:38:58;9.57;;;7.45;;
16634;SDS011;8431;52.458;9.998;2022-08-07T04:41:25;8.73;;;7.35;;
16634;SDS011;8431;52.458;9.998;2022-08-07T04:43:52;8.63;;;7.53;;
16634;SDS011;8431;52.458;9.998;2022-08-07T04:46:24;8.88;;;7.97;;
16634;SDS011;8431;52.458;9.998;2022-08-07T04:48:59;9.65;;;8.40;;
16634;SDS011;8431;52.458;9.998;2022-08-07T04:51:33;11.55;;;8.27;;
16634;SDS011;8431;52.458;9.998;2022-08-07T04:54:09;9.25;;;8.02;;
16634;SDS011;8431;52.458;9.998;2022-08-07T04:56:43;9.13;;;7.35;;
16634;SDS011;8431;52.458;9.998;2022-08-07T04:59:16;8.13;;;7.07;;
16634;SDS011;8431;52.458;9.998;2022-08-07T05:01:52;9.55;;;7.60;;
16634;SDS011;8431;52.458;9.998;2022-08-07T05:04:28;7.60;;;6.90;;
16634;SDS011;8431;52.458;9.998;2022-08-07T05:07:03;8.65;;;7.72;;
16634;SDS011;8431;52.458;9.998;2022-08-07T05:09:37;7.57;;;6.85;;
16634;SDS011;8431;52.458;9.998;2022-08-07T05:12:14;10.13;;;7.20;;
16634;SDS011;8431;52.458;9.998;2022-08-07T05:14:44;8.95;;;7.55;;
16634;SDS011;8431;52.458;9.998;2022-08-07T05:17:17;8.73;;;6.90;;
16634;SDS011;8431;52.458;9.998;2022-08-07T05:19:46;11.02;;;8.02;;
16634;SDS011;8431;52.458;9.998;2022-08-07T05:22:16;11.13;;;9.07;;
16634;SDS011;8431;52.458;9.998;2022-08-07T05:24:47;10.07;;;8.18;;
16634;SDS011;8431;52.458;9.998;2022-08-07T05:27:16;11.13;;;8.75;;
16634;SDS011;8431;52.458;9.998;2022-08-07T05:29:45;9.75;;;8.43;;
16634;SDS011;8431;52.458;9.998;2022-08-07T05:32:16;12.43;;;9.05;;
16634;SDS011;8431;52.458;9.998;2022-08-07T05:34:45;9.07;;;8.20;;
16634;SDS011;8431;52.458;9.998;2022-08-07T05:37:14;10.60;;;8.57;;
16634;SDS011;8431;52.458;9.998;2022-08-07T05:39:41;11.20;;;8.85;;
16634;SDS011;8431;52.458;9.998;2022-08-07T05:42:09;11.68;;;9.15;;
16634;SDS011;8431;52.458;9.998;2022-08-07T05:44:38;11.13;;;8.07;;
16634;SDS011;8431;52.458;9.998;2022-08-07T05:47:06;9.07;;;7.82;;
16634;SDS011;8431;52.458;9.998;2022-08-07T05:49:35;8.73;;;7.93;;
16634;SDS011;8431;52.458;9.998;2022-08-07T05:52:03;9.00;;;7.68;;
16634;SDS011;8431;52.458;9.998;2022-08-07T05:54:30;7.97;;;7.18;;
16634;SDS011;8431;52.458;9.998;2022-08-07T05:56:57;8.57;;;7.70;;
16634;SDS011;8431;52.458;9.998;2022-08-07T05:59:26;13.25;;;8.02;;
16634;SDS011;8431;52.458;9.998;2022-08-07T06:01:57;9.85;;;7.63;;
16634;SDS011;8431;52.458;9.998;2022-08-07T06:04:25;7.95;;;7.15;;
16634;SDS011;8431;52.458;9.998;2022-08-07T06:06:55;9.18;;;7.50;;
16634;SDS011;8431;52.458;9.998;2022-08-07T06:09:23;8.35;;;7.55;;
16634;SDS011;8431;52.458;9.998;2022-08-07T06:11:50;7.57;;;6.80;;
16634;SDS011;8431;52.458;9.998;2022-08-07T06:14:17;7.20;;;6.50;;
16634;SDS011;8431;52.458;9.998;2022-08-07T06:16:44;7.32;;;5.57;;
16634;SDS011;8431;52.458;9.998;2022-08-07T06:19:13;6.95;;;6.22;;
16634;SDS011;8431;52.458;9.998;2022-08-07T06:21:42;6.95;;;6.32;;
16634;SDS011;8431;52.458;9.998;2022-08-07T06:24:12;12.55;;;5.97;;
16634;SDS011;8431;52.458;9.998;2022-08-07T06:26:40;7.03;;;6.32;;
16634;SDS011;8431;52.458;9.998;2022-08-07T06:29:08;7.05;;;6.35;;
16634;SDS011;8431;52.458;9.998;2022-08-07T06:31:35;6.50;;;5.50;;
16634;SDS011;8431;52.458;9.998;2022-08-07T06:34:02;5.63;;;5.22;;
16634;SDS011;8431;52.458;9.998;2022-08-07T06:36:30;6.10;;;5.60;;
16634;SDS011;8431;52.458;9.998;2022-08-07T06:38:57;6.70;;;6.10;;
16634;SDS011;8431;52.458;9.998;2022-08-07T06:41:25;5.18;;;4.75;;
16634;SDS011;8431;52.458;9.998;2022-08-07T06:43:56;6.00;;;5.43;;
16634;SDS011;8431;52.458;9.998;2022-08-07T06:46:25;6.13;;;5.25;;
16634;SDS011;8431;52.458;9.998;2022-08-07T06:48:53;5.85;;;4.88;;
16634;SDS011;8431;52.458;9.998;2022-08-07T06:51:20;5.43;;;4.93;;
16634;SDS011;8431;52.458;9.998;2022-08-07T06:53:51;6.55;;;4.65;;
16634;SDS011;8431;52.458;9.998;2022-08-07T06:56:21;5.50;;;4.68;;
16634;SDS011;8431;52.458;9.998;2022-08-07T06:59:19;4.50;;;4.03;;
16634;SDS011;8431;52.458;9.998;2022-08-07T07:01:52;5.40;;;4.95;;
16634;SDS011;8431;52.458;9.998;2022-08-07T07:04:20;5.18;;;4.50;;
16634;SDS011;8431;52.458;9.998;2022-08-07T07:06:47;7.60;;;5.30;;
16634;SDS011;8431;52.458;9.998;2022-08-07T07:09:15;5.25;;;4.50;;
16634;SDS011;8431;52.458;9.998;2022-08-07T07:11:43;5.20;;;4.80;;
16634;SDS011;8431;52.458;9.998;2022-08-07T07:14:19;5.47;;;4.53;;
16634;SDS011;8431;52.458;9.998;2022-08-07T07:16:49;4.55;;;4.25;;
16634;SDS011;8431;52.458;9.998;2022-08-07T07:19:18;6.22;;;4.35;;
16634;SDS011;8431;52.458;9.998;2022-08-07T07:21:48;5.57;;;4.53;;
16634;SDS011;8431;52.458;9.998;2022-08-07T07:24:18;4.47;;;4.18;;
16634;SDS011;8431;52.458;9.998;2022-08-07T07:26:45;6.75;;;4.53;;
16634;SDS011;8431;52.458;9.998;2022-08-07T07:29:17;6.10;;;4.40;;
16634;SDS011;8431;52.458;9.998;2022-08-07T07:31:51;5.18;;;4.32;;
16634;SDS011;8431;52.458;9.998;2022-08-07T07:34:21;6.88;;;4.47;;
16634;SDS011;8431;52.458;9.998;2022-08-07T07:36:52;6.18;;;4.40;;
16634;SDS011;8431;52.458;9.998;2022-08-07T07:39:21;4.75;;;4.32;;
16634;SDS011;8431;52.458;9.998;2022-08-07T07:41:50;4.90;;;4.47;;
16634;SDS011;8431;52.458;9.998;2022-08-07T07:44:17;4.75;;;4.35;;
16634;SDS011;8431;52.458;9.998;2022-08-07T07:46:47;5.53;;;4.68;;
16634;SDS011;8431;52.458;9.998;2022-08-07T07:49:16;4.25;;;3.95;;
16634;SDS011;8431;52.458;9.998;2022-08-07T07:51:46;6.40;;;4.50;;
16634;SDS011;8431;52.458;9.998;2022-08-07T07:54:13;6.25;;;5.03;;
16634;SDS011;8431;52.458;9.998;2022-08-07T07:56:43;5.43;;;4.50;;
16634;SDS011;8431;52.458;9.998;2022-08-07T07:59:12;4.30;;;4.00;;
16634;SDS011;8431;52.458;9.998;2022-08-07T08:01:41;4.97;;;4.50;;
16634;SDS011;8431;52.458;9.998;2022-08-07T08:04:12;4.45;;;4.15;;
16634;SDS011;8431;52.458;9.998;2022-08-07T08:06:41;4.75;;;4.45;;
16634;SDS011;8431;52.458;9.998;2022-08-07T08:09:09;4.53;;;4.13;;
16634;SDS011;8431;52.458;9.998;2022-08-07T08:11:39;4.63;;;4.22;;
16634;SDS011;8431;52.458;9.998;2022-08-07T08:14:08;4.22;;;3.92;;
16634;SDS011;8431;52.458;9.998;2022-08-07T08:16:36;4.07;;;3.78;;
16634;SDS011;8431;52.458;9.998;2022-08-07T08:19:06;4.45;;;4.00;;
16634;SDS011;8431;52.458;9.998;2022-08-07T08:21:36;4.20;;;3.90;;
16634;SDS011;8431;52.458;9.998;2022-08-07T08:24:23;5.05;;;4.40;;
16634;SDS011;8431;52.458;9.998;2022-08-07T08:27:11;8.25;;;4.32;;
16634;SDS011;8431;52.458;9.998;2022-08-07T08:29:41;3.63;;;3.42;;
16634;SDS011;8431;52.458;9.998;2022-08-07T08:32:14;4.35;;;3.80;;
16634;SDS011;8431;52.458;9.998;2022-08-07T08:34:46;3.83;;;3.50;;
16634;SDS011;8431;52.458;9.998;2022-08-07T08:37:17;5.38;;;3.60;;
16634;SDS011;8431;52.458;9.998;2022-08-07T08:39:46;3.60;;;3.38;;
16634;SDS011;8431;52.458;9.998;2022-08-07T08:42:19;4.20;;;3.80;;
16634;SDS011;8431;52.458;9.998;2022-08-07T08:44:52;4.65;;;3.80;;
16634;SDS011;8431;52.458;9.998;2022-08-07T08:47:26;4.40;;;3.10;;
16634;SDS011;8431;52.458;9.998;2022-08-07T08:50:00;4.28;;;3.15;;
16634;SDS011;8431;52.458;9.998;2022-08-07T08:52:33;3.05;;;2.95;;
16634;SDS011;8431;52.458;9.998;2022-08-07T08:55:05;3.60;;;3.30;;
16634;SDS011;8431;52.458;9.998;2022-08-07T08:57:40;3.00;;;2.80;;
16634;SDS011;8431;52.458;9.998;2022-08-07T09:00:12;2.88;;;2.67;;
16634;SDS011;8431;52.458;9.998;2022-08-07T09:02:43;3.40;;;2.42;;
16634;SDS011;8431;52.458;9.998;2022-08-07T09:05:25;3.00;;;2.80;;
16634;SDS011;8431;52.458;9.998;2022-08-07T09:08:03;2.47;;;2.28;;
16634;SDS011;8431;52.458;9.998;2022-08-07T09:10:40;3.72;;;2.30;;
16634;SDS011;8431;52.458;9.998;2022-08-07T09:13:12;3.92;;;2.28;;
16634;SDS011;8431;52.458;9.998;2022-08-07T09:15:48;4.60;;;2.15;;
16634;SDS011;8431;52.458;9.998;2022-08-07T09:18:25;2.13;;;1.92;;
16634;SDS011;8431;52.458;9.998;2022-08-07T09:21:09;2.17;;;1.35;;
16634;SDS011;8431;52.458;9.998;2022-08-07T09:23:51;1.00;;;1.00;;
16634;SDS011;8431;52.458;9.998;2022-08-07T09:26:26;1.05;;;0.85;;
16634;SDS011;8431;52.458;9.998;2022-08-07T09:29:01;1.27;;;1.17;;
16634;SDS011;8431;52.458;9.998;2022-08-07T09:31:35;1.77;;;1.65;;
16634;SDS011;8431;52.458;9.998;2022-08-07T09:34:10;2.25;;;2.15;;
16634;SDS011;8431;52.458;9.998;2022-08-07T09:36:43;2.25;;;2.05;;
16634;SDS011;8431;52.458;9.998;2022-08-07T09:39:24;2.33;;;2.03;;
16634;SDS011;8431;52.458;9.998;2022-08-07T09:42:01;1.70;;;1.60;;
16634;SDS011;8431;52.458;9.998;2022-08-07T09:44:38;2.35;;;2.00;;
16634;SDS011;8431;52.458;9.998;2022-08-07T09:47:14;3.80;;;2.33;;
16634;SDS011;8431;52.458;9.998;2022-08-07T09:49:52;2.80;;;2.10;;
16634;SDS011;8431;52.458;9.998;2022-08-07T09:52:25;2.88;;;1.95;;
16634;SDS011;8431;52.458;9.998;2022-08-07T09:55:00;2.42;;;2.10;;
16634;SDS011;8431;52.458;9.998;2022-08-07T09:57:43;1.60;;;1.50;;
16634;SDS011;8431;52.458;9.998;2022-08-07T10:00:39;2.00;;;1.90;;
16634;SDS011;8431;52.458;9.998;2022-08-07T10:06:41;2.05;;;1.70;;
16634;SDS011;8431;52.458;9.998;2022-08-07T10:09:29;1.98;;;1.77;;
16634;SDS011;8431;52.458;9.998;2022-08-07T10:12:25;1.63;;;1.35;;
16634;SDS011;8431;52.458;9.998;2022-08-07T10:15:18;1.27;;;1.10;;
16634;SDS011;8431;52.458;9.998;2022-08-07T10:18:01;2.95;;;1.55;;
16634;SDS011;8431;52.458;9.998;2022-08-07T10:20:40;1.67;;;1.48;;
16634;SDS011;8431;52.458;9.998;2022-08-07T10:23:23;1.70;;;1.60;;
16634;SDS011;8431;52.458;9.998;2022-08-07T10:26:05;1.83;;;1.73;;
16634;SDS011;8431;52.458;9.998;2022-08-07T10:28:48;3.17;;;1.60;;
16634;SDS011;8431;52.458;9.998;2022-08-07T10:34:26;1.92;;;1.83;;
16634;SDS011;8431;52.458;9.998;2022-08-07T10:37:05;1.75;;;1.67;;
16634;SDS011;8431;52.458;9.998;2022-08-07T10:39:53;2.13;;;2.03;;
16634;SDS011;8431;52.458;9.998;2022-08-07T10:42:28;1.90;;;1.80;;
16634;SDS011;8431;52.458;9.998;2022-08-07T10:45:05;1.80;;;1.70;;
16634;SDS011;8431;52.458;9.998;2022-08-07T10:47:53;2.55;;;1.90;;
16634;SDS011;8431;52.458;9.998;2022-08-07T10:50:30;2.03;;;1.80;;
16634;SDS011;8431;52.458;9.998;2022-08-07T10:53:08;2.03;;;1.83;;
16634;SDS011;8431;52.458;9.998;2022-08-07T10:55:41;2.05;;;2.00;;
16634;SDS011;8431;52.458;9.998;2022-08-07T10:58:27;2.05;;;1.95;;
16634;SDS011;8431;52.458;9.998;2022-08-07T11:01:11;3.67;;;1.90;;
16634;SDS011;8431;52.458;9.998;2022-08-07T11:03:48;2.22;;;2.13;;
16634;SDS011;8431;52.458;9.998;2022-08-07T11:06:22;2.08;;;1.90;;
16634;SDS011;8431;52.458;9.998;2022-08-07T11:08:57;2.00;;;1.90;;
16634;SDS011;8431;52.458;9.998;2022-08-07T11:11:28;1.98;;;1.88;;
16634;SDS011;8431;52.458;9.998;2022-08-07T11:14:01;2.30;;;2.10;;
16634;SDS011;8431;52.458;9.998;2022-08-07T11:16:35;2.78;;;1.90;;
16634;SDS011;8431;52.458;9.998;2022-08-07T11:19:09;2.22;;;1.90;;
16634;SDS011;8431;52.458;9.998;2022-08-07T11:21:44;1.90;;;1.80;;
16634;SDS011;8431;52.458;9.998;2022-08-07T11:24:21;3.92;;;1.92;;
16634;SDS011;8431;52.458;9.998;2022-08-07T11:26:54;1.80;;;1.70;;
16634;SDS011;8431;52.458;9.998;2022-08-07T11:29:28;2.67;;;1.90;;
16634;SDS011;8431;52.458;9.998;2022-08-07T11:32:03;2.17;;;2.00;;
16634;SDS011;8431;52.458;9.998;2022-08-07T11:34:37;1.85;;;1.75;;
16634;SDS011;8431;52.458;9.998;2022-08-07T11:37:12;2.30;;;2.10;;
16634;SDS011;8431;52.458;9.998;2022-08-07T11:39:54;3.65;;;2.05;;
16634;SDS011;8431;52.458;9.998;2022-08-07T11:42:37;3.05;;;2.03;;
16634;SDS011;8431;52.458;9.998;2022-08-07T11:45:12;2.25;;;2.15;;
16634;SDS011;8431;52.458;9.998;2022-08-07T11:47:54;3.25;;;2.00;;
16634;SDS011;8431;52.458;9.998;2022-08-07T11:50:35;1.80;;;1.70;;
16634;SDS011;8431;52.458;9.998;2022-08-07T11:53:12;2.90;;;2.00;;
16634;SDS011;8431;52.458;9.998;2022-08-07T11:55:55;3.08;;;1.90;;
16634;SDS011;8431;52.458;9.998;2022-08-07T11:58:35;2.25;;;1.70;;
16634;SDS011;8431;52.458;9.998;2022-08-07T12:01:13;1.50;;;1.50;;
16634;SDS011;8431;52.458;9.998;2022-08-07T12:04:15;1.70;;;1.60;;
16634;SDS011;8431;52.458;9.998;2022-08-07T12:06:58;2.10;;;1.63;;
16634;SDS011;8431;52.458;9.998;2022-08-07T12:09:31;1.83;;;1.73;;
16634;SDS011;8431;52.458;9.998;2022-08-07T12:12:03;2.25;;;1.70;;
16634;SDS011;8431;52.458;9.998;2022-08-07T12:14:37;2.05;;;1.70;;
16634;SDS011;8431;52.458;9.998;2022-08-07T12:17:12;1.67;;;1.58;;
16634;SDS011;8431;52.458;9.998;2022-08-07T12:19:45;1.88;;;1.60;;
16634;SDS011;8431;52.458;9.998;2022-08-07T12:22:18;3.60;;;1.50;;
16634;SDS011;8431;52.458;9.998;2022-08-07T12:24:54;1.75;;;1.65;;
16634;SDS011;8431;52.458;9.998;2022-08-07T12:27:45;1.83;;;1.70;;
16634;SDS011;8431;52.458;9.998;2022-08-07T12:30:16;2.35;;;1.40;;
16634;SDS011;8431;52.458;9.998;2022-08-07T12:32:49;1.80;;;1.70;;
16634;SDS011;8431;52.458;9.998;2022-08-07T12:35:23;2.38;;;1.60;;
16634;SDS011;8431;52.458;9.998;2022-08-07T12:37:52;2.53;;;1.45;;
16634;SDS011;8431;52.458;9.998;2022-08-07T12:40:21;1.52;;;1.42;;
16634;SDS011;8431;52.458;9.998;2022-08-07T12:42:51;1.30;;;1.30;;
16634;SDS011;8431;52.458;9.998;2022-08-07T12:45:22;1.50;;;1.40;;
16634;SDS011;8431;52.458;9.998;2022-08-07T12:47:54;2.10;;;1.90;;
16634;SDS011;8431;52.458;9.998;2022-08-07T12:50:28;2.08;;;1.85;;
16634;SDS011;8431;52.458;9.998;2022-08-07T12:53:06;1.73;;;1.63;;
16634;SDS011;8431;52.458;9.998;2022-08-07T12:55:39;1.65;;;1.55;;
16634;SDS011;8431;52.458;9.998;2022-08-07T12:58:11;1.40;;;1.35;;
16634;SDS011;8431;52.458;9.998;2022-08-07T13:00:46;1.80;;;1.70;;
16634;SDS011;8431;52.458;9.998;2022-08-07T13:03:30;2.30;;;1.63;;
16634;SDS011;8431;52.458;9.998;2022-08-07T13:06:17;1.85;;;1.70;;
16634;SDS011;8431;52.458;9.998;2022-08-07T13:09:05;2.60;;;1.88;;
16634;SDS011;8431;52.458;9.998;2022-08-07T13:11:40;1.80;;;1.70;;
16634;SDS011;8431;52.458;9.998;2022-08-07T13:14:18;1.80;;;1.70;;
16634;SDS011;8431;52.458;9.998;2022-08-07T13:16:51;1.67;;;1.58;;
16634;SDS011;8431;52.458;9.998;2022-08-07T13:19:26;1.70;;;1.60;;
16634;SDS011;8431;52.458;9.998;2022-08-07T13:22:01;1.83;;;1.73;;
16634;SDS011;8431;52.458;9.998;2022-08-07T13:24:37;1.88;;;1.85;;
16634;SDS011;8431;52.458;9.998;2022-08-07T13:27:09;1.60;;;1.50;;
16634;SDS011;8431;52.458;9.998;2022-08-07T13:29:42;1.65;;;1.55;;
16634;SDS011;8431;52.458;9.998;2022-08-07T13:32:17;2.00;;;1.50;;
16634;SDS011;8431;52.458;9.998;2022-08-07T13:34:50;1.58;;;1.48;;
16634;SDS011;8431;52.458;9.998;2022-08-07T13:37:26;2.10;;;1.52;;
16634;SDS011;8431;52.458;9.998;2022-08-07T13:40:01;2.17;;;1.90;;
16634;SDS011;8431;52.458;9.998;2022-08-07T13:42:33;2.03;;;1.58;;
16634;SDS011;8431;52.458;9.998;2022-08-07T13:45:03;2.10;;;1.85;;
16634;SDS011;8431;52.458;9.998;2022-08-07T13:47:32;1.88;;;1.67;;
16634;SDS011;8431;52.458;9.998;2022-08-07T13:50:02;1.67;;;1.58;;
16634;SDS011;8431;52.458;9.998;2022-08-07T13:52:35;3.22;;;1.70;;
16634;SDS011;8431;52.458;9.998;2022-08-07T13:55:05;1.60;;;1.60;;
16634;SDS011;8431;52.458;9.998;2022-08-07T13:57:35;1.60;;;1.50;;
16634;SDS011;8431;52.458;9.998;2022-08-07T14:00:05;2.00;;;1.60;;
16634;SDS011;8431;52.458;9.998;2022-08-07T14:02:34;1.88;;;1.77;;
16634;SDS011;8431;52.458;9.998;2022-08-07T14:05:04;1.70;;;1.60;;
16634;SDS011;8431;52.458;9.998;2022-08-07T14:07:38;1.85;;;1.73;;
16634;SDS011;8431;52.458;9.998;2022-08-07T14:10:10;1.52;;;1.52;;
16634;SDS011;8431;52.458;9.998;2022-08-07T14:12:39;4.18;;;1.80;;
16634;SDS011;8431;52.458;9.998;2022-08-07T14:15:17;2.10;;;2.00;;
16634;SDS011;8431;52.458;9.998;2022-08-07T14:17:50;1.75;;;1.65;;
16634;SDS011;8431;52.458;9.998;2022-08-07T14:20:20;4.15;;;1.73;;
16634;SDS011;8431;52.458;9.998;2022-08-07T14:22:53;1.60;;;1.50;;
16634;SDS011;8431;52.458;9.998;2022-08-07T14:25:29;1.50;;;1.40;;
16634;SDS011;8431;52.458;9.998;2022-08-07T14:28:01;2.30;;;1.70;;
16634;SDS011;8431;52.458;9.998;2022-08-07T14:30:31;3.05;;;1.85;;
16634;SDS011;8431;52.458;9.998;2022-08-07T14:32:59;2.60;;;1.77;;
16634;SDS011;8431;52.458;9.998;2022-08-07T14:35:29;2.33;;;1.95;;
16634;SDS011;8431;52.458;9.998;2022-08-07T14:37:59;2.03;;;1.92;;
16634;SDS011;8431;52.458;9.998;2022-08-07T14:40:28;1.60;;;1.50;;
16634;SDS011;8431;52.458;9.998;2022-08-07T14:42:57;1.65;;;1.55;;
16634;SDS011;8431;52.458;9.998;2022-08-07T14:45:29;1.95;;;1.80;;
16634;SDS011;8431;52.458;9.998;2022-08-07T14:47:59;1.65;;;1.60;;
16634;SDS011;8431;52.458;9.998;2022-08-07T14:50:27;2.30;;;2.00;;
16634;SDS011;8431;52.458;9.998;2022-08-07T14:52:55;1.70;;;1.60;;
16634;SDS011;8431;52.458;9.998;2022-08-07T14:55:28;1.90;;;1.80;;
16634;SDS011;8431;52.458;9.998;2022-08-07T14:57:59;2.08;;;1.88;;
16634;SDS011;8431;52.458;9.998;2022-08-07T15:00:29;1.90;;;1.80;;
16634;SDS011;8431;52.458;9.998;2022-08-07T15:02:59;1.90;;;1.80;;
16634;SDS011;8431;52.458;9.998;2022-08-07T15:05:30;1.60;;;1.50;;
16634;SDS011;8431;52.458;9.998;2022-08-07T15:07:58;1.92;;;1.83;;
16634;SDS011;8431;52.458;9.998;2022-08-07T15:10:30;1.55;;;1.50;;
16634;SDS011;8431;52.458;9.998;2022-08-07T15:12:58;1.40;;;1.40;;
16634;SDS011;8431;52.458;9.998;2022-08-07T15:15:28;2.50;;;1.60;;
16634;SDS011;8431;52.458;9.998;2022-08-07T15:18:02;1.80;;;1.70;;
16634;SDS011;8431;52.458;9.998;2022-08-07T15:20:34;2.83;;;1.73;;
16634;SDS011;8431;52.458;9.998;2022-08-07T15:23:04;2.95;;;1.90;;
16634;SDS011;8431;52.458;9.998;2022-08-07T15:25:39;1.75;;;1.65;;
16634;SDS011;8431;52.458;9.998;2022-08-07T15:28:16;1.40;;;1.40;;
16634;SDS011;8431;52.458;9.998;2022-08-07T15:30:45;2.03;;;1.90;;
16634;SDS011;8431;52.458;9.998;2022-08-07T15:33:16;1.67;;;1.50;;
16634;SDS011;8431;52.458;9.998;2022-08-07T15:35:47;1.80;;;1.50;;